Time;durP1;ratioP1;P1;durP2;ratioP2;P2;SDS_P1;SDS_P2;PMS_P1;PMS_P2;Temp;Humidity;BMP_temperature;BMP_pressure;BME280_temperature;BME280_humidity;BME280_pressure;Samples;Min_cycle;Max_cycle;Signal;HPM_P1;HPM_P2
2021/09/10 00:02:18;;;;;;;13.90;8.73;;;16.90;99.90;;;;;;5047924;28;20524;-73
2021/09/10 00:04:47;;;;;;;14.57;8.38;;;16.90;99.90;;;;;;5043137;28;21247;-73
2021/09/10 00:07:13;;;;;;;13.40;9.15;;;16.90;99.90;;;;;;5038948;28;20025;-73
2021/09/10 00:09:39;;;;;;;13.55;8.75;;;16.90;99.90;;;;;;5034680;28;20040;-73
2021/09/10 00:12:07;;;;;;;14.25;8.65;;;16.80;99.90;;;;;;5041404;28;20032;-73
2021/09/10 00:14:39;;;;;;;13.32;8.80;;;16.90;99.90;;;;;;5044747;28;20029;-73
2021/09/10 00:17:05;;;;;;;15.95;9.20;;;16.80;99.90;;;;;;5048322;28;20032;-73
2021/09/10 00:19:31;;;;;;;14.05;7.82;;;16.80;99.90;;;;;;5042190;28;20252;-73
2021/09/10 00:21:56;;;;;;;14.25;8.68;;;16.80;99.90;;;;;;5040776;28;20033;-74
2021/09/10 00:24:29;;;;;;;15.63;9.57;;;16.70;99.90;;;;;;5038365;28;20090;-73
2021/09/10 00:26:55;;;;;;;13.88;9.18;;;16.70;99.90;;;;;;5045341;28;20167;-73
2021/09/10 00:29:21;;;;;;;11.88;8.57;;;16.70;99.90;;;;;;5047976;28;20112;-73
2021/09/10 00:31:47;;;;;;;16.15;8.52;;;16.60;99.90;;;;;;5048382;28;20021;-74
2021/09/10 00:34:13;;;;;;;13.32;8.65;;;16.70;99.90;;;;;;5043691;28;20044;-72
2021/09/10 00:36:38;;;;;;;11.52;8.43;;;16.60;99.90;;;;;;5046876;28;20124;-73
2021/09/10 00:39:04;;;;;;;13.18;8.35;;;16.60;99.90;;;;;;5050546;28;20105;-73
2021/09/10 00:41:29;;;;;;;13.80;8.45;;;16.60;99.90;;;;;;5049188;28;20041;-73
2021/09/10 00:43:55;;;;;;;13.38;7.78;;;16.50;99.90;;;;;;5039829;28;20446;-73
2021/09/10 00:46:21;;;;;;;14.32;9.18;;;16.50;99.90;;;;;;5042979;28;20080;-73
2021/09/10 00:48:47;;;;;;;13.23;8.40;;;16.50;99.90;;;;;;5046281;28;20044;-73
2021/09/10 00:51:12;;;;;;;18.52;8.77;;;16.50;99.90;;;;;;5041203;28;20128;-73
2021/09/10 00:53:38;;;;;;;12.73;8.40;;;16.50;99.90;;;;;;5047292;28;20037;-72
2021/09/10 00:56:04;;;;;;;12.70;8.68;;;16.40;99.90;;;;;;5048383;28;20071;-73
2021/09/10 00:58:29;;;;;;;15.82;8.82;;;16.40;99.90;;;;;;5041588;28;20051;-73
2021/09/10 01:00:55;;;;;;;15.63;9.00;;;16.40;99.90;;;;;;5045424;28;20021;-73
2021/09/10 01:03:20;;;;;;;13.77;8.40;;;16.40;99.90;;;;;;5046178;28;20044;-73
2021/09/10 01:05:46;;;;;;;12.27;8.20;;;16.30;99.90;;;;;;5041100;28;20025;-72
2021/09/10 01:08:12;;;;;;;11.40;8.68;;;16.30;99.90;;;;;;5040226;28;20426;-73
2021/09/10 01:10:41;;;;;;;11.75;8.30;;;16.30;99.90;;;;;;5043465;28;20036;-73
2021/09/10 01:13:09;;;;;;;13.27;8.15;;;16.20;99.90;;;;;;5038204;28;20044;-72
2021/09/10 01:15:35;;;;;;;14.13;8.68;;;16.20;99.90;;;;;;5046117;28;20507;-72
2021/09/10 01:18:00;;;;;;;13.85;8.40;;;16.20;99.90;;;;;;5043871;28;20144;-72
2021/09/10 01:20:26;;;;;;;13.18;8.25;;;16.20;99.90;;;;;;5034868;28;20034;-73
2021/09/10 01:22:52;;;;;;;12.95;8.27;;;16.10;99.90;;;;;;5044076;28;20033;-73
2021/09/10 01:25:19;;;;;;;16.67;8.38;;;16.10;99.90;;;;;;5046112;28;20480;-73
2021/09/10 01:27:54;;;;;;;12.00;8.32;;;16.10;99.90;;;;;;5044664;28;20426;-73
2021/09/10 01:30:21;;;;;;;12.77;8.43;;;16.10;99.90;;;;;;5045898;28;20029;-73
2021/09/10 01:32:47;;;;;;;14.10;8.20;;;16.00;99.90;;;;;;5036496;28;20033;-72
2021/09/10 01:35:13;;;;;;;14.10;8.50;;;16.00;99.90;;;;;;5044120;28;20063;-73
2021/09/10 01:37:39;;;;;;;11.45;7.82;;;16.00;99.90;;;;;;5045949;28;20037;-72
2021/09/10 01:40:06;;;;;;;12.07;7.75;;;16.00;99.90;;;;;;5034971;28;20021;-73
2021/09/10 01:42:32;;;;;;;12.05;8.25;;;16.00;99.90;;;;;;5041728;28;20116;-73
2021/09/10 01:44:58;;;;;;;15.57;8.65;;;16.00;99.90;;;;;;5038616;28;20079;-72
2021/09/10 01:47:24;;;;;;;13.02;8.57;;;15.90;99.90;;;;;;5040580;28;20033;-73
2021/09/10 01:49:49;;;;;;;15.32;8.40;;;15.90;99.90;;;;;;5040577;28;20031;-73
2021/09/10 01:52:15;;;;;;;11.43;8.02;;;15.90;99.90;;;;;;5045114;28;20094;-72
2021/09/10 01:54:40;;;;;;;12.40;7.88;;;15.90;99.90;;;;;;5042973;28;20108;-73
2021/09/10 01:57:06;;;;;;;15.98;8.98;;;15.90;99.90;;;;;;5044790;28;20029;-73
2021/09/10 01:59:32;;;;;;;13.93;7.93;;;15.90;99.90;;;;;;5045848;28;20613;-72
2021/09/10 02:01:57;;;;;;;14.75;8.05;;;15.90;99.90;;;;;;5043079;28;20034;-72
2021/09/10 02:04:23;;;;;;;12.73;8.23;;;15.80;99.90;;;;;;5043745;28;20768;-73
2021/09/10 02:06:48;;;;;;;13.43;8.00;;;15.80;99.90;;;;;;5050932;28;20031;-72
2021/09/10 02:09:14;;;;;;;14.45;8.80;;;15.80;99.90;;;;;;5046787;28;20380;-73
2021/09/10 02:11:40;;;;;;;13.25;7.85;;;15.80;99.90;;;;;;5049610;28;20471;-72
2021/09/10 02:14:05;;;;;;;15.43;8.15;;;15.80;99.90;;;;;;5047071;28;20036;-72
2021/09/10 02:16:31;;;;;;;12.82;7.90;;;15.80;99.90;;;;;;5044021;28;20053;-72
2021/09/10 02:18:57;;;;;;;15.60;8.77;;;15.70;99.90;;;;;;5041554;28;20029;-72
2021/09/10 02:21:22;;;;;;;16.52;8.88;;;15.70;99.90;;;;;;5044736;28;20376;-71
2021/09/10 02:23:48;;;;;;;11.98;7.90;;;15.70;99.90;;;;;;5048502;28;20020;-71
2021/09/10 02:26:14;;;;;;;12.48;7.88;;;15.70;99.90;;;;;;5047343;28;20033;-71
2021/09/10 02:28:39;;;;;;;15.55;8.13;;;15.70;99.90;;;;;;5050300;28;20029;-71
2021/09/10 02:31:05;;;;;;;15.32;8.35;;;15.60;99.90;;;;;;5049629;28;20025;-71
2021/09/10 02:33:30;;;;;;;12.30;8.18;;;15.60;99.90;;;;;;5039855;28;20483;-71
2021/09/10 02:35:56;;;;;;;15.07;8.68;;;15.60;99.90;;;;;;5045110;28;20029;-71
2021/09/10 02:38:23;;;;;;;14.30;8.90;;;15.60;99.90;;;;;;5043090;28;20494;-71
2021/09/10 02:40:49;;;;;;;12.38;8.07;;;15.60;99.90;;;;;;5047458;28;20429;-71
2021/09/10 02:43:15;;;;;;;15.20;8.10;;;15.50;99.90;;;;;;5047193;28;20035;-71
2021/09/10 02:45:40;;;;;;;11.02;7.45;;;15.50;99.90;;;;;;5044825;28;20021;-70
2021/09/10 02:48:06;;;;;;;11.82;8.15;;;15.50;99.90;;;;;;5045112;28;20071;-71
2021/09/10 02:50:32;;;;;;;12.00;7.88;;;15.50;99.90;;;;;;5044636;28;20020;-71
2021/09/10 02:52:57;;;;;;;11.45;7.68;;;15.50;99.90;;;;;;5046165;28;20047;-71
2021/09/10 02:55:23;;;;;;;13.18;8.00;;;15.50;99.90;;;;;;5048868;28;20365;-71
2021/09/10 02:57:48;;;;;;;12.68;8.30;;;15.50;99.90;;;;;;5048842;28;20112;-71
2021/09/10 03:00:15;;;;;;;14.52;7.80;;;15.50;99.90;;;;;;5045284;28;20055;-71
2021/09/10 03:02:41;;;;;;;14.00;7.47;;;15.50;99.90;;;;;;5049084;28;20041;-71
2021/09/10 03:05:07;;;;;;;16.10;7.88;;;15.40;99.90;;;;;;5052156;28;20063;-71
2021/09/10 03:07:32;;;;;;;13.90;8.02;;;15.40;99.90;;;;;;5043163;28;20021;-71
2021/09/10 03:09:58;;;;;;;15.88;8.18;;;15.40;99.90;;;;;;5039494;28;20360;-71
2021/09/10 03:12:25;;;;;;;11.07;7.90;;;15.40;99.90;;;;;;5038718;28;20124;-71
2021/09/10 03:14:50;;;;;;;11.43;7.90;;;15.40;99.90;;;;;;5043118;28;20108;-71
2021/09/10 03:17:16;;;;;;;14.18;8.70;;;15.40;99.90;;;;;;5048954;28;20112;-71
2021/09/10 03:19:41;;;;;;;11.30;7.50;;;15.40;99.90;;;;;;5045453;28;20472;-71
2021/09/10 03:22:07;;;;;;;17.08;8.02;;;15.40;99.90;;;;;;5049827;28;20438;-71
2021/09/10 03:24:33;;;;;;;12.57;7.90;;;15.40;99.90;;;;;;5041915;28;20036;-71
2021/09/10 03:26:59;;;;;;;12.52;7.90;;;15.30;99.90;;;;;;5049356;28;20029;-71
2021/09/10 03:29:24;;;;;;;12.93;8.00;;;15.30;99.90;;;;;;5043145;28;20036;-71
2021/09/10 03:31:50;;;;;;;9.63;7.15;;;15.30;99.90;;;;;;5044228;28;20029;-71
2021/09/10 03:34:15;;;;;;;12.43;8.05;;;15.30;99.90;;;;;;5043955;28;20787;-71
2021/09/10 03:36:41;;;;;;;12.02;7.75;;;15.30;99.90;;;;;;5049161;28;20025;-71
2021/09/10 03:39:06;;;;;;;11.68;7.35;;;15.30;99.90;;;;;;5040597;28;20036;-71
2021/09/10 03:41:32;;;;;;;12.85;8.43;;;15.20;99.90;;;;;;5049252;28;20053;-71
2021/09/10 03:43:57;;;;;;;13.35;7.95;;;15.20;99.90;;;;;;5036556;28;20041;-71
2021/09/10 03:46:23;;;;;;;12.30;8.38;;;15.20;99.90;;;;;;5054625;28;20382;-70
2021/09/10 03:48:49;;;;;;;13.43;8.57;;;15.20;99.90;;;;;;5045570;28;20029;-71
2021/09/10 03:51:16;;;;;;;12.38;8.30;;;15.10;99.90;;;;;;5049034;28;20052;-71
2021/09/10 03:53:41;;;;;;;11.90;8.40;;;15.10;99.90;;;;;;5040510;28;20032;-70
2021/09/10 03:56:07;;;;;;;15.85;8.90;;;15.10;99.90;;;;;;5048982;28;20033;-71
2021/09/10 03:58:33;;;;;;;13.23;7.82;;;15.10;99.90;;;;;;5033288;28;20028;-71
2021/09/10 04:00:58;;;;;;;12.82;7.53;;;15.10;99.90;;;;;;5049543;28;20037;-70
2021/09/10 04:03:24;;;;;;;11.15;8.25;;;15.10;99.90;;;;;;5049003;28;20091;-71
2021/09/10 04:05:49;;;;;;;15.38;8.88;;;15.10;99.90;;;;;;5038377;28;20480;-70
2021/09/10 04:08:16;;;;;;;11.27;8.15;;;15.10;99.90;;;;;;5045158;28;20029;-71
2021/09/10 04:10:41;;;;;;;15.38;9.07;;;15.00;99.90;;;;;;5047466;28;20027;-71
2021/09/10 04:13:07;;;;;;;15.85;8.45;;;15.00;99.90;;;;;;5049245;28;20033;-71
2021/09/10 04:15:33;;;;;;;14.02;8.48;;;15.00;99.90;;;;;;5043934;28;20029;-71
2021/09/10 04:17:58;;;;;;;13.15;8.65;;;15.00;99.90;;;;;;5045706;28;20021;-71
2021/09/10 04:20:24;;;;;;;13.20;8.07;;;15.00;99.90;;;;;;5044998;28;20522;-72
2021/09/10 04:22:50;;;;;;;13.85;8.05;;;15.00;99.90;;;;;;5039174;28;20029;-72
2021/09/10 04:25:16;;;;;;;14.43;8.07;;;15.00;99.90;;;;;;5035648;28;20154;-73
2021/09/10 04:27:42;;;;;;;12.60;8.07;;;15.00;99.90;;;;;;5040109;28;20029;-72
2021/09/10 04:30:09;;;;;;;15.13;8.52;;;15.00;99.90;;;;;;5042349;28;20029;-72
2021/09/10 04:32:35;;;;;;;12.75;8.27;;;15.00;99.90;;;;;;5040662;28;20025;-73
2021/09/10 04:35:00;;;;;;;12.52;8.10;;;15.00;99.90;;;;;;5040070;28;20021;-73
2021/09/10 04:37:26;;;;;;;13.27;8.30;;;15.00;99.90;;;;;;5043559;28;20775;-72
2021/09/10 04:39:52;;;;;;;12.13;8.23;;;15.00;99.90;;;;;;5037591;28;20499;-72
2021/09/10 04:42:17;;;;;;;12.15;8.30;;;15.00;99.90;;;;;;5044199;28;20155;-72
2021/09/10 04:44:43;;;;;;;15.05;8.82;;;14.90;99.90;;;;;;5043528;28;20404;-72
2021/09/10 04:47:08;;;;;;;15.98;8.35;;;15.00;99.90;;;;;;5047636;28;20025;-72
2021/09/10 04:49:34;;;;;;;12.52;8.50;;;15.00;99.90;;;;;;5043729;28;20024;-72
2021/09/10 04:52:00;;;;;;;13.63;9.40;;;14.90;99.90;;;;;;5043307;28;20141;-74
2021/09/10 04:54:26;;;;;;;12.68;8.73;;;14.90;99.90;;;;;;5054151;28;20447;-74
2021/09/10 04:56:51;;;;;;;13.20;8.00;;;14.90;99.90;;;;;;5044125;28;20036;-75
2021/09/10 04:59:18;;;;;;;15.65;9.20;;;14.90;99.90;;;;;;5043949;28;20032;-77
2021/09/10 05:01:44;;;;;;;13.32;8.48;;;14.90;99.90;;;;;;5038680;28;20029;-75
2021/09/10 05:04:09;;;;;;;14.60;8.43;;;15.00;99.90;;;;;;5043393;28;20036;-75
2021/09/10 05:06:35;;;;;;;17.15;8.60;;;15.00;99.90;;;;;;5040432;28;20028;-75
2021/09/10 05:09:00;;;;;;;13.05;8.30;;;15.00;99.90;;;;;;5043494;28;20111;-75
2021/09/10 05:11:26;;;;;;;12.13;8.45;;;15.00;99.90;;;;;;5050196;28;20408;-75
2021/09/10 05:13:52;;;;;;;14.05;8.82;;;15.00;99.90;;;;;;5048041;28;20037;-75
2021/09/10 05:16:17;;;;;;;13.93;9.43;;;15.00;99.90;;;;;;5043123;28;20037;-75
2021/09/10 05:18:43;;;;;;;14.30;9.10;;;15.00;99.90;;;;;;5046392;28;20033;-75
2021/09/10 05:21:08;;;;;;;12.68;8.35;;;15.10;99.90;;;;;;5046228;28;20440;-75
2021/09/10 05:23:34;;;;;;;13.27;8.60;;;15.10;99.90;;;;;;5044957;28;20120;-75
2021/09/10 05:25:59;;;;;;;15.20;9.40;;;15.10;99.90;;;;;;5044538;28;20112;-75
2021/09/10 05:28:25;;;;;;;18.77;9.10;;;15.10;99.90;;;;;;5046776;28;20376;-75
2021/09/10 05:30:51;;;;;;;15.93;8.77;;;15.20;99.90;;;;;;5043410;28;20029;-74
2021/09/10 05:33:16;;;;;;;12.55;9.23;;;15.20;99.90;;;;;;5036859;28;20037;-75
2021/09/10 05:35:42;;;;;;;14.00;9.60;;;15.20;99.90;;;;;;5047590;28;20036;-75
2021/09/10 05:38:08;;;;;;;12.55;8.63;;;15.20;99.90;;;;;;5039674;28;20034;-76
2021/09/10 05:40:36;;;;;;;22.75;8.77;;;15.30;99.90;;;;;;5047806;28;20059;-79
2021/09/10 05:43:02;;;;;;;13.95;8.75;;;15.30;99.90;;;;;;5050579;28;20032;-77
2021/09/10 05:45:28;;;;;;;14.80;9.50;;;15.40;99.90;;;;;;5044642;28;20529;-76
2021/09/10 05:47:53;;;;;;;16.55;9.63;;;15.40;99.90;;;;;;5045625;28;20124;-76
2021/09/10 05:50:19;;;;;;;12.57;8.43;;;15.40;99.90;;;;;;5045101;28;20017;-77
2021/09/10 05:52:44;;;;;;;20.15;10.05;;;15.50;99.90;;;;;;5044880;28;20037;-76
2021/09/10 05:55:10;;;;;;;13.65;9.05;;;15.50;99.90;;;;;;5049540;28;20021;-73
2021/09/10 05:57:36;;;;;;;13.88;9.25;;;15.50;99.90;;;;;;5038783;28;20033;-73
2021/09/10 06:00:10;;;;;;;14.57;9.32;;;15.60;99.90;;;;;;5047895;28;20044;-73
2021/09/10 06:08:49;;;;;;;15.63;9.30;;;15.70;99.90;;;;;;4965669;28;20049;-73
2021/09/10 06:11:18;;;;;;;14.10;9.68;;;15.80;99.90;;;;;;5038511;28;20033;-73
2021/09/10 06:13:44;;;;;;;19.70;11.38;;;15.90;99.90;;;;;;5054634;28;20035;-73
2021/09/10 06:16:10;;;;;;;16.95;11.13;;;15.90;99.90;;;;;;5053445;28;20021;-73
2021/09/10 06:18:35;;;;;;;20.13;11.07;;;16.00;99.90;;;;;;5045513;28;20021;-73
2021/09/10 06:21:03;;;;;;;20.38;11.65;;;16.10;99.90;;;;;;5040495;28;20048;-74
2021/09/10 06:23:29;;;;;;;20.90;11.25;;;16.30;99.90;;;;;;5050878;28;20068;-74
2021/09/10 06:25:54;;;;;;;20.27;11.50;;;16.40;99.90;;;;;;5050458;28;20527;-73
2021/09/10 06:28:20;;;;;;;17.88;11.70;;;16.50;99.90;;;;;;5049528;28;20055;-73
2021/09/10 06:30:45;;;;;;;22.25;11.63;;;16.60;99.90;;;;;;5050012;28;20100;-74
2021/09/10 06:33:11;;;;;;;18.13;11.25;;;16.80;99.90;;;;;;5042815;28;20032;-73
2021/09/10 06:35:36;;;;;;;17.88;10.75;;;16.90;99.90;;;;;;5052172;28;20059;-73
2021/09/10 06:38:03;;;;;;;16.35;10.65;;;17.00;99.90;;;;;;5057011;28;20040;-73
2021/09/10 06:40:28;;;;;;;18.60;11.52;;;17.10;99.90;;;;;;5050617;28;20491;-73
2021/09/10 06:42:54;;;;;;;17.08;10.10;;;17.30;99.90;;;;;;5046674;28;20037;-74
2021/09/10 06:45:20;;;;;;;16.30;10.98;;;17.40;99.90;;;;;;5046463;28;20017;-73
2021/09/10 06:47:45;;;;;;;19.13;11.00;;;17.40;99.90;;;;;;5050036;28;20025;-74
2021/09/10 06:50:11;;;;;;;18.30;10.43;;;17.60;99.90;;;;;;5039156;28;20383;-74
2021/09/10 06:52:41;;;;;;;18.15;9.80;;;17.60;99.90;;;;;;5046269;28;20071;-73
2021/09/10 06:55:09;;;;;;;17.90;10.75;;;17.70;99.90;;;;;;5045733;28;20115;-74
2021/09/10 06:57:36;;;;;;;15.70;9.77;;;17.80;99.90;;;;;;5048216;28;20029;-74
2021/09/10 07:00:04;;;;;;;18.70;10.27;;;17.90;99.90;;;;;;5044544;28;20052;-74
2021/09/10 07:02:30;;;;;;;16.92;10.60;;;18.10;99.90;;;;;;5038370;28;20033;-74
2021/09/10 07:04:55;;;;;;;16.30;10.55;;;18.10;99.90;;;;;;5046650;28;20025;-73
2021/09/10 07:07:21;;;;;;;21.17;11.07;;;18.20;99.90;;;;;;5050111;28;20533;-74
2021/09/10 07:09:46;;;;;;;16.35;9.88;;;18.20;99.90;;;;;;5035248;28;20035;-74
2021/09/10 07:12:12;;;;;;;14.98;9.38;;;18.30;99.90;;;;;;5045171;28;20017;-74
2021/09/10 07:14:37;;;;;;;14.75;10.10;;;18.30;99.90;;;;;;5044008;28;20026;-74
2021/09/10 07:17:03;;;;;;;13.98;9.02;;;18.40;99.90;;;;;;5037741;28;20016;-74
2021/09/10 07:19:29;;;;;;;15.57;8.98;;;18.50;99.90;;;;;;5050023;28;20482;-74
2021/09/10 07:21:54;;;;;;;16.48;9.57;;;18.50;99.90;;;;;;5049552;28;20040;-74
2021/09/10 07:24:20;;;;;;;19.52;9.68;;;18.60;99.90;;;;;;5049286;28;20036;-74
2021/09/10 07:26:46;;;;;;;16.23;9.52;;;18.60;99.90;;;;;;5041210;28;20461;-73
2021/09/10 07:29:12;;;;;;;15.70;9.80;;;18.60;99.90;;;;;;5049570;28;20475;-74
2021/09/10 07:31:38;;;;;;;13.50;9.23;;;18.70;99.90;;;;;;5039809;28;20021;-74
2021/09/10 07:34:05;;;;;;;20.30;9.80;;;18.70;99.90;;;;;;5049615;28;20075;-74
2021/09/10 07:36:31;;;;;;;21.23;10.10;;;18.80;99.90;;;;;;5044175;28;20033;-74
2021/09/10 07:38:56;;;;;;;19.50;9.48;;;18.90;99.90;;;;;;5043444;28;20056;-73
2021/09/10 07:41:21;;;;;;;12.88;9.23;;;19.00;99.90;;;;;;5034239;28;20441;-74
2021/09/10 07:43:47;;;;;;;18.38;9.52;;;19.10;99.90;;;;;;5041408;28;20518;-74
2021/09/10 07:46:14;;;;;;;15.63;9.27;;;19.20;99.90;;;;;;5042899;28;20025;-74
2021/09/10 07:48:40;;;;;;;15.73;9.15;;;19.30;99.90;;;;;;5045734;28;20029;-74
2021/09/10 07:51:05;;;;;;;14.00;9.15;;;19.30;99.90;;;;;;5046218;28;20041;-74
2021/09/10 07:53:31;;;;;;;15.95;9.30;;;19.40;99.90;;;;;;5047696;28;20443;-73
2021/09/10 07:55:56;;;;;;;17.05;8.10;;;19.50;99.90;;;;;;5047078;28;20036;-74
2021/09/10 07:58:22;;;;;;;12.30;8.10;;;19.50;99.90;;;;;;5035300;28;20037;-74
2021/09/10 08:00:47;;;;;;;12.82;8.07;;;19.70;99.90;;;;;;5051802;28;20332;-74
2021/09/10 08:03:13;;;;;;;25.08;8.60;;;19.80;99.90;;;;;;5043064;28;20029;-73
2021/09/10 08:05:39;;;;;;;17.23;8.13;;;19.80;99.90;;;;;;5032362;28;20025;-73
2021/09/10 08:08:05;;;;;;;12.38;8.02;;;19.90;99.90;;;;;;5046804;28;20017;-73
2021/09/10 08:10:31;;;;;;;11.18;7.70;;;19.90;99.90;;;;;;5044835;28;20025;-73
2021/09/10 08:12:56;;;;;;;11.63;6.65;;;20.00;99.90;;;;;;5047534;28;20047;-73
2021/09/10 08:15:22;;;;;;;11.10;7.55;;;20.10;99.90;;;;;;5030666;28;20041;-73
2021/09/10 08:17:47;;;;;;;12.48;7.18;;;20.20;99.90;;;;;;5039796;28;20131;-72
2021/09/10 08:20:13;;;;;;;10.90;7.15;;;20.20;99.90;;;;;;5049964;28;20021;-73
2021/09/10 08:22:39;;;;;;;12.70;6.55;;;20.20;99.90;;;;;;5046344;28;20028;-72
2021/09/10 08:25:06;;;;;;;8.40;5.72;;;20.30;99.90;;;;;;5035140;28;20029;-75
2021/09/10 08:27:32;;;;;;;13.88;6.75;;;20.40;99.90;;;;;;5044572;28;20056;-72
2021/09/10 08:29:58;;;;;;;9.63;6.20;;;20.50;99.90;;;;;;5045858;28;20487;-73
2021/09/10 08:32:25;;;;;;;10.20;5.65;;;20.60;99.90;;;;;;5036493;28;20020;-73
2021/09/10 08:34:52;;;;;;;8.27;5.53;;;20.70;99.90;;;;;;5049822;28;20498;-73
2021/09/10 08:37:17;;;;;;;11.80;5.72;;;20.70;99.90;;;;;;5048425;28;20037;-73
2021/09/10 08:39:43;;;;;;;11.43;5.75;;;20.70;99.90;;;;;;5049039;28;20029;-73
2021/09/10 08:42:09;;;;;;;9.25;5.90;;;20.80;99.90;;;;;;5047264;28;20340;-73
2021/09/10 08:44:38;;;;;;;9.90;5.10;;;20.80;99.90;;;;;;5048309;28;20033;-73
2021/09/10 08:47:04;;;;;;;7.72;5.43;;;20.90;99.90;;;;;;5043580;28;20030;-73
2021/09/10 08:49:29;;;;;;;11.30;5.40;;;20.90;99.90;;;;;;5046055;28;20075;-73
2021/09/10 08:51:55;;;;;;;10.00;5.70;;;20.90;99.90;;;;;;5034804;28;20045;-74
2021/09/10 08:54:20;;;;;;;7.18;5.43;;;21.00;99.90;;;;;;5040825;28;20094;-73
2021/09/10 08:56:46;;;;;;;8.23;5.72;;;21.10;99.90;;;;;;5044336;28;20462;-73
2021/09/10 08:59:16;;;;;;;11.38;6.45;;;21.20;99.90;;;;;;5053382;28;20024;-73
2021/09/10 09:01:55;;;;;;;12.40;5.95;;;21.30;99.90;;;;;;5043282;28;20036;-73
2021/09/10 09:04:23;;;;;;;10.18;5.45;;;21.40;99.90;;;;;;5035090;28;20037;-73
2021/09/10 09:06:53;;;;;;;9.82;6.30;;;21.30;99.90;;;;;;5047563;28;20028;-73
2021/09/10 09:09:42;;;;;;;12.10;5.93;;;21.40;99.90;;;;;;5045118;28;20031;-73
2021/09/10 09:12:23;;;;;;;14.38;6.00;;;21.50;99.90;;;;;;5047188;28;20025;-73
2021/09/10 09:15:00;;;;;;;10.40;6.25;;;21.50;99.90;;;;;;5049675;28;20494;-73
2021/09/10 09:17:37;;;;;;;9.80;5.97;;;21.60;99.90;;;;;;5047387;28;20110;-73
2021/09/10 09:20:20;;;;;;;12.98;6.45;;;21.70;99.90;;;;;;5041546;28;20100;-73
2021/09/10 09:22:58;;;;;;;8.25;5.78;;;21.90;99.90;;;;;;5048479;28;20033;-73
2021/09/10 09:25:34;;;;;;;11.57;6.30;;;21.90;99.90;;;;;;5047186;28;20068;-73
2021/09/10 09:28:16;;;;;;;10.13;6.35;;;22.10;99.90;;;;;;5053010;28;20025;-73
2021/09/10 09:30:43;;;;;;;9.52;6.03;;;22.10;99.90;;;;;;5042872;28;20079;-73
2021/09/10 09:33:12;;;;;;;11.88;6.32;;;22.20;99.90;;;;;;5048795;28;20064;-73
2021/09/10 09:35:38;;;;;;;9.55;6.05;;;22.20;99.90;;;;;;5047788;28;20048;-73
2021/09/10 09:38:15;;;;;;;9.50;6.15;;;22.30;99.90;;;;;;5043723;28;20487;-73
2021/09/10 09:40:41;;;;;;;13.02;6.57;;;22.40;99.90;;;;;;5051121;28;20032;-73
2021/09/10 09:43:19;;;;;;;10.43;6.05;;;22.50;99.90;;;;;;5048932;28;20615;-73
2021/09/10 09:45:47;;;;;;;8.73;6.43;;;22.60;99.90;;;;;;5051553;28;20017;-73
2021/09/10 09:48:13;;;;;;;10.57;6.30;;;22.70;99.90;;;;;;5050895;28;20029;-73
2021/09/10 09:50:40;;;;;;;11.30;7.05;;;22.80;99.90;;;;;;5050734;28;20017;-73
2021/09/10 09:53:06;;;;;;;7.72;5.70;;;22.80;99.90;;;;;;5047144;28;20033;-73
2021/09/10 09:55:33;;;;;;;10.50;5.20;;;22.90;99.90;;;;;;5051139;28;20502;-73
2021/09/10 09:58:03;;;;;;;11.10;5.13;;;23.00;99.90;;;;;;5049012;28;20041;-73
2021/09/10 10:00:29;;;;;;;10.07;5.72;;;23.00;99.90;;;;;;5046694;28;20033;-73
2021/09/10 10:02:55;;;;;;;8.82;4.82;;;23.10;99.90;;;;;;5047501;28;20037;-73
2021/09/10 10:05:20;;;;;;;8.07;5.22;;;23.20;99.90;;;;;;5049203;28;20534;-73
2021/09/10 10:08:09;;;;;;;7.63;5.07;;;23.30;99.90;;;;;;5051154;28;20506;-73
2021/09/10 10:10:47;;;;;;;9.85;5.38;;;23.40;99.90;;;;;;5043399;28;20075;-73
2021/09/10 10:13:26;;;;;;;7.45;4.97;;;23.30;99.90;;;;;;5050957;28;20115;-73
2021/09/10 10:15:52;;;;;;;7.05;5.00;;;23.50;99.90;;;;;;5051160;28;20491;-74
2021/09/10 10:18:40;;;;;;;7.75;5.22;;;23.60;99.90;;;;;;5056035;28;20033;-73
2021/09/10 10:21:09;;;;;;;10.45;5.45;;;23.70;99.90;;;;;;5050936;28;20491;-73
2021/09/10 10:23:44;;;;;;;7.65;5.05;;;23.80;99.90;;;;;;5050710;28;20033;-73
2021/09/10 10:26:20;;;;;;;8.95;4.97;;;23.90;99.90;;;;;;5046111;28;20491;-73
2021/09/10 10:29:01;;;;;;;10.25;5.10;;;24.10;99.20;;;;;;5050686;28;20035;-73
2021/09/10 10:32:00;;;;;;;7.00;4.70;;;24.10;98.60;;;;;;5039832;28;20025;-73
2021/09/10 10:34:27;;;;;;;8.13;4.95;;;24.30;97.10;;;;;;5057864;28;20044;-73
2021/09/10 10:36:53;;;;;;;8.77;4.93;;;24.40;96.40;;;;;;5046750;28;20033;-74
2021/09/10 10:39:27;;;;;;;12.15;4.72;;;24.50;95.70;;;;;;5041885;28;20074;-73
2021/09/10 10:41:58;;;;;;;9.68;4.80;;;24.70;93.60;;;;;;5047191;28;20033;-73
2021/09/10 10:44:32;;;;;;;10.00;5.20;;;24.80;93.70;;;;;;5049963;28;20503;-74
2021/09/10 10:47:12;;;;;;;11.07;4.82;;;24.90;93.60;;;;;;5037626;28;20179;-73
2021/09/10 10:49:49;;;;;;;7.38;4.70;;;25.00;92.90;;;;;;5045554;28;20396;-74
2021/09/10 10:52:24;;;;;;;6.30;3.92;;;25.20;91.70;;;;;;5041382;28;20045;-75
2021/09/10 10:55:26;;;;;;;8.20;4.40;;;25.20;91.10;;;;;;5041432;28;20551;-74
2021/09/10 10:57:54;;;;;;;7.90;4.68;;;25.40;90.30;;;;;;5043151;28;20060;-74
2021/09/10 11:00:28;;;;;;;7.78;4.57;;;25.60;87.90;;;;;;5043198;28;20036;-74
2021/09/10 11:03:13;;;;;;;6.15;4.20;;;25.70;87.20;;;;;;5049955;28;20467;-74
2021/09/10 11:05:43;;;;;;;5.70;4.00;;;25.80;86.00;;;;;;5050019;28;20146;-74
2021/09/10 11:08:09;;;;;;;5.43;4.25;;;26.00;86.20;;;;;;5045397;28;20049;-74
2021/09/10 11:10:35;;;;;;;7.05;4.70;;;26.10;84.90;;;;;;5043868;28;20039;-74
2021/09/10 11:13:01;;;;;;;7.47;4.55;;;26.30;83.90;;;;;;5049551;28;20372;-74
2021/09/10 11:15:32;;;;;;;7.18;4.72;;;26.40;85.10;;;;;;5049444;28;20035;-75
2021/09/10 11:18:11;;;;;;;7.38;4.53;;;26.50;84.50;;;;;;5049597;28;20044;-74
2021/09/10 11:20:43;;;;;;;5.57;3.97;;;26.70;82.40;;;;;;5048913;28;20035;-74
2021/09/10 11:23:11;;;;;;;7.78;4.32;;;26.90;81.60;;;;;;5037369;28;20036;-74
2021/09/10 11:25:53;;;;;;;8.20;4.38;;;27.00;81.40;;;;;;5044681;28;20256;-74
2021/09/10 11:28:20;;;;;;;8.77;4.47;;;27.30;80.80;;;;;;5048180;28;20052;-74
2021/09/10 11:30:48;;;;;;;7.22;4.43;;;27.50;80.20;;;;;;5039400;28;20021;-74
2021/09/10 11:33:13;;;;;;;7.43;4.60;;;27.70;78.10;;;;;;5042461;28;20040;-74
2021/09/10 11:35:40;;;;;;;6.50;4.45;;;27.90;77.50;;;;;;5049262;28;20028;-74
2021/09/10 11:38:07;;;;;;;7.57;4.47;;;28.20;77.30;;;;;;5048307;28;20566;-75
2021/09/10 11:40:46;;;;;;;8.38;4.43;;;28.60;75.50;;;;;;5035843;28;20029;-74
2021/09/10 11:43:16;;;;;;;6.15;4.55;;;28.90;73.40;;;;;;5045456;28;20119;-74
2021/09/10 11:45:59;;;;;;;6.53;4.30;;;29.20;72.60;;;;;;5041306;28;20032;-75
2021/09/10 11:48:36;;;;;;;5.55;4.68;;;29.50;70.50;;;;;;5048940;28;20045;-75
2021/09/10 11:51:10;;;;;;;9.05;4.80;;;29.90;68.40;;;;;;5049206;28;20183;-74
2021/09/10 11:53:47;;;;;;;6.68;4.70;;;30.10;69.00;;;;;;5042039;28;20036;-75
2021/09/10 11:56:19;;;;;;;7.47;4.50;;;30.50;66.60;;;;;;5038105;28;20246;-74
2021/09/10 11:58:49;;;;;;;6.22;4.55;;;30.80;65.70;;;;;;5049170;28;20032;-74
2021/09/10 12:01:21;;;;;;;7.95;4.78;;;31.10;64.00;;;;;;5040805;28;20061;-75
2021/09/10 12:03:56;;;;;;;5.65;4.35;;;31.00;65.50;;;;;;5049097;28;20052;-75
2021/09/10 12:06:27;;;;;;;6.07;4.43;;;31.20;63.10;;;;;;5047686;28;20025;-74
2021/09/10 12:09:09;;;;;;;9.55;4.15;;;31.10;63.40;;;;;;5046744;28;20048;-77
2021/09/10 12:11:36;;;;;;;5.28;4.45;;;31.10;61.40;;;;;;5040410;28;20022;-82
2021/09/10 12:14:13;;;;;;;6.75;4.38;;;31.40;60.60;;;;;;5048538;28;20053;-84
2021/09/10 12:16:38;;;;;;;8.90;4.60;;;31.80;60.40;;;;;;5049235;28;20033;-84
2021/09/10 12:19:05;;;;;;;7.78;4.70;;;32.00;59.40;;;;;;5046736;28;20032;-84
2021/09/10 12:21:32;;;;;;;7.95;4.85;;;31.50;59.90;;;;;;5039252;28;20037;-85
2021/09/10 12:24:08;;;;;;;7.60;4.90;;;30.70;61.80;;;;;;5042272;28;20395;-85
2021/09/10 12:26:59;;;;;;;5.80;4.97;;;29.90;64.20;;;;;;5047492;28;20044;-87
2021/09/10 12:29:28;;;;;;;9.27;5.40;;;29.30;65.20;;;;;;5044439;28;20033;-86
2021/09/10 12:31:55;;;;;;;10.95;5.40;;;28.70;67.50;;;;;;5046689;28;20024;-85
2021/09/10 12:34:21;;;;;;;6.82;5.43;;;28.30;70.40;;;;;;5048181;28;20514;-86
2021/09/10 12:36:47;;;;;;;6.93;5.00;;;28.20;71.30;;;;;;5038440;28;20092;-84
2021/09/10 12:39:14;;;;;;;13.23;5.22;;;29.00;69.50;;;;;;5043389;28;20100;-82
2021/09/10 12:41:40;;;;;;;7.07;5.22;;;29.70;65.10;;;;;;5040078;28;20078;-79
2021/09/10 12:44:09;;;;;;;6.40;4.93;;;29.90;63.20;;;;;;5038613;28;20029;-79
2021/09/10 12:46:36;;;;;;;7.32;5.13;;;29.60;64.90;;;;;;5036720;28;20202;-77
2021/09/10 12:49:03;;;;;;;7.57;4.85;;;29.20;65.30;;;;;;5044106;28;20033;-79